Attica, Indiana
Current Conditions -  °F | °C
As of 10:54 AM on Friday 24 Oct 2014 (Local Time) from KLAF Reporting Station
Overcast Overcast  
Wind Chill: 54°   Ceiling: 2300
Heat Index: 54°   Visibility: 10mi
Dew Point: 48°   Wind: 7mph
Humidity: 80%   Direction: 200°SSW
Pressure: 30.1"   Gusts: NA
Location:  40.29°N, 87.25°W
Report Text: KLAF 241454Z 20006KT 10SM OVC023 12/09 A3010 RMK AO2 SLP193 T01220089 50002
Loading
Personal Weather Stations






























Interactive Weather Map
Tropical Storm Tracking
New forecast layout! Learn more

10-Day Weather Forecast

Advertisements
Track Severe Weather on mobile